»·PEaware :: RNGR824 KNGP-KNGP

RNGR824 :: KNGP-KNGP

FLIGHT INFORMATION

Flight Status: Arrived
Operator: Unknown
More flights by this operator :: More flights under this callsign
Pilot: USN Avenger (31125)
Aircraft: BEECH AIRCRAFT T-6A TEXAN
(TEX2)
More flights by this aircraft type
Origin: KNGP Corpus Christi NAS/Truax
United States
Destination: KNGP Corpus Christi NAS/Truax
United States
More flights between these airports :: More routes between these airports
Route: MUST3 KNWL
File this flight plan on PilotEdge
Remarks: 36 PLEASE
Altitude:
(Current/Filed)
5,500ft
Speed:
(Current/Filed)
240kts
Departed: 14-Nov-23 01:16 PM
Arrived: 14-Nov-23 02:02 PM
Distance/Time
Traveled:
0nm/0:46
Distance/Time
To Go:
Arrived

Flight Plot

Page will automatically refresh every two minutes.

Flight plan parsing failed; only flown route is shown


Map Options




Map Legend


Flown Route
Filed Route
Departure Airport
Arrival Airport
Navaid (VOR, NDB)
Fix

Horizontal Profiles

Position Reports

Time Latitude Longitude Heading Altitude Ground
Speed
14-Nov-23 13:09 27.689303 -97.282259 358 22ft 0kts
14-Nov-23 13:10 27.689305 -97.282259 358 22ft 0kts
14-Nov-23 13:11 27.689587 -97.282751 266 22ft 0kts
14-Nov-23 13:12 27.687689 -97.281438 230 22ft 11kts
14-Nov-23 13:13 27.687604 -97.281548 225 22ft 0kts
14-Nov-23 13:14 27.687152 -97.282592 312 22ft 0kts
14-Nov-23 13:15 27.703198 -97.300421 316 583ft 156kts
14-Nov-23 13:16 27.751380 -97.299315 50 1393ft 229kts
14-Nov-23 13:17 27.742377 -97.230627 114 2904ft 226kts
14-Nov-23 13:18 27.711165 -97.170373 122 5073ft 213kts
14-Nov-23 13:19 27.661419 -97.148998 208 5811ft 249kts
14-Nov-23 13:20 27.594648 -97.175422 202 6117ft 245kts
14-Nov-23 13:21 27.533684 -97.204705 203 7843ft 218kts
14-Nov-23 13:22 27.510315 -97.257190 223 8022ft 233kts
14-Nov-23 13:23 27.479238 -97.273885 23 7556ft 232kts
14-Nov-23 13:24 27.517962 -97.225591 96 8216ft 232kts
14-Nov-23 13:25 27.483170 -97.246778 283 6186ft 233kts
14-Nov-23 13:26 27.513949 -97.300599 269 4162ft 185kts
14-Nov-23 13:27 27.489537 -97.341896 326 1917ft 153kts
14-Nov-23 13:28 27.536942 -97.332021 14 1091ft 179kts
14-Nov-23 13:29 27.587742 -97.318476 359 1307ft 206kts
14-Nov-23 13:30 27.640788 -97.317124 359 1003ft 182kts
14-Nov-23 13:31 27.623840 -97.325352 172 748ft 131kts
14-Nov-23 13:32 27.639478 -97.315247 358 97ft 106kts
14-Nov-23 13:33 27.647198 -97.329405 190 763ft 141kts
14-Nov-23 13:34 27.617535 -97.321073 62 428ft 121kts
14-Nov-23 13:35 27.644731 -97.315203 357 265ft 110kts
14-Nov-23 13:36 27.644224 -97.327530 176 839ft 138kts
14-Nov-23 13:37 27.620885 -97.316856 29 280ft 108kts
14-Nov-23 13:38 27.647246 -97.315444 353 369ft 116kts
14-Nov-23 13:39 27.637868 -97.324889 181 894ft 133kts
14-Nov-23 13:40 27.626346 -97.313366 351 213ft 133kts
14-Nov-23 13:41 27.658355 -97.316385 343 502ft 105kts
14-Nov-23 13:42 27.639205 -97.326934 175 908ft 128kts
14-Nov-23 13:43 27.625221 -97.315503 353 111ft 121kts
14-Nov-23 13:44 27.654226 -97.315895 340 712ft 112kts
14-Nov-23 13:45 27.634834 -97.328802 161 619ft 135kts
14-Nov-23 13:46 27.624318 -97.315110 351 140ft 119kts
14-Nov-23 13:47 27.653682 -97.315255 353 772ft 114kts
14-Nov-23 13:48 27.640439 -97.327131 177 832ft 124kts
14-Nov-23 13:49 27.602019 -97.316965 143 741ft 182kts
14-Nov-23 13:50 27.578040 -97.268332 111 809ft 185kts
14-Nov-23 13:51 27.568541 -97.213540 39 1198ft 188kts
14-Nov-23 13:52 27.615785 -97.189843 26 1419ft 182kts
14-Nov-23 13:53 27.661562 -97.159519 24 1218ft 194kts
14-Nov-23 13:54 27.707693 -97.131956 25 1070ft 198kts
14-Nov-23 13:55 27.752927 -97.132490 305 1166ft 184kts
14-Nov-23 13:56 27.742477 -97.180561 202 1032ft 201kts
14-Nov-23 13:57 27.692307 -97.197796 209 1229ft 213kts
14-Nov-23 13:58 27.653736 -97.238750 298 1158ft 186kts
14-Nov-23 13:59 27.689075 -97.284012 311 889ft 191kts
14-Nov-23 14:00 27.685513 -97.269578 184 557ft 118kts
14-Nov-23 14:01 27.692379 -97.288814 317 22ft 29kts

Navigation Log

Ident Type
Flight plan parsing failed, navigation log unavailable